Time,TemperatureF,DewpointF,PressureIn,WindDirection,WindDirectionDegrees,WindSpeedMPH,WindSpeedGustMPH,Humidity,HourlyPrecipIn,Conditions,Clouds,dailyrainin,SoftwareType,DateUTC
2013-12-28 00:01:00,21.8,20.5,30.26,WNW,286,0.0,0.0,95,0.00,,,0.00,WUHU216DAVISWMX,2013-12-28 05:01:00,
2013-12-28 00:06:00,21.6,20.3,30.26,WNW,286,0.0,0.0,95,0.00,,,0.00,WUHU216DAVISWMX,2013-12-28 05:06:00,
2013-12-28 00:11:00,21.4,20.1,30.27,WNW,286,0.0,0.0,95,0.00,,,0.00,WUHU216DAVISWMX,2013-12-28 05:11:00,
2013-12-28 00:16:00,21.2,19.9,30.26,WNW,286,0.0,0.0,95,0.00,,,0.00,WUHU216DAVISWMX,2013-12-28 05:16:00,
2013-12-28 00:21:00,21.0,19.7,30.26,WNW,286,0.0,0.0,95,0.00,,,0.00,WUHU216DAVISWMX,2013-12-28 05:21:00,
2013-12-28 00:26:00,21.0,19.7,30.26,WNW,286,0.0,0.0,95,0.00,,,0.00,WUHU216DAVISWMX,2013-12-28 05:26:00,
2013-12-28 00:31:00,20.8,19.6,30.26,WNW,286,0.0,0.0,95,0.00,,,0.00,WUHU216DAVISWMX,2013-12-28 05:31:00,
2013-12-28 00:36:00,20.7,19.5,30.27,WNW,286,0.0,0.0,95,0.00,,,0.00,WUHU216DAVISWMX,2013-12-28 05:36:00,
2013-12-28 00:41:00,20.6,19.4,30.26,WNW,286,0.0,0.0,95,0.00,,,0.00,WUHU216DAVISWMX,2013-12-28 05:41:00,
2013-12-28 00:46:00,20.4,19.2,30.25,WNW,286,0.0,0.0,95,0.00,,,0.00,WUHU216DAVISWMX,2013-12-28 05:46:00,
2013-12-28 00:51:00,20.1,18.9,30.26,WNW,286,0.0,0.0,95,0.00,,,0.00,WUHU216DAVISWMX,2013-12-28 05:51:00,
2013-12-28 00:56:00,20.0,18.8,30.25,WNW,286,0.0,0.0,95,0.00,,,0.00,WUHU216DAVISWMX,2013-12-28 05:56:00,
2013-12-28 01:01:00,19.8,18.6,30.25,WNW,286,0.0,0.0,95,0.00,,,0.00,WUHU216DAVISWMX,2013-12-28 06:01:00,
2013-12-28 01:06:00,19.6,18.4,30.25,WNW,286,0.0,0.0,95,0.00,,,0.00,WUHU216DAVISWMX,2013-12-28 06:06:00,
2013-12-28 01:11:00,19.6,18.4,30.25,WNW,286,0.0,0.0,95,0.00,,,0.00,WUHU216DAVISWMX,2013-12-28 06:11:00,
2013-12-28 01:16:00,19.6,18.4,30.25,WNW,286,0.0,0.0,95,0.00,,,0.00,WUHU216DAVISWMX,2013-12-28 06:16:00,
2013-12-28 01:21:00,19.3,18.1,30.24,WNW,286,0.0,0.0,95,0.00,,,0.00,WUHU216DAVISWMX,2013-12-28 06:21:00,
2013-12-28 01:26:00,19.2,18.0,30.24,WNW,286,0.0,0.0,95,0.00,,,0.00,WUHU216DAVISWMX,2013-12-28 06:26:00,
2013-12-28 01:31:00,19.0,17.8,30.25,WNW,286,0.0,0.0,95,0.00,,,0.00,WUHU216DAVISWMX,2013-12-28 06:31:00,
2013-12-28 01:36:00,19.0,17.8,30.25,WNW,286,0.0,0.0,95,0.00,,,0.00,WUHU216DAVISWMX,2013-12-28 06:36:00,
2013-12-28 01:41:00,18.8,17.6,30.26,WNW,286,0.0,0.0,95,0.00,,,0.00,WUHU216DAVISWMX,2013-12-28 06:41:00,
2013-12-28 01:46:00,18.7,17.5,30.26,WNW,286,0.0,0.0,95,0.00,,,0.00,WUHU216DAVISWMX,2013-12-28 06:46:00,
2013-12-28 01:51:00,18.5,17.0,30.25,WNW,286,0.0,0.0,94,0.00,,,0.00,WUHU216DAVISWMX,2013-12-28 06:51:00,
2013-12-28 01:56:00,18.5,17.3,30.25,WNW,286,0.0,0.0,95,0.00,,,0.00,WUHU216DAVISWMX,2013-12-28 06:56:00,
2013-12-28 02:01:00,18.5,17.3,30.25,WNW,286,0.0,0.0,95,0.00,,,0.00,WUHU216DAVISWMX,2013-12-28 07:01:00,
2013-12-28 02:06:00,18.6,17.4,30.25,WNW,286,0.0,0.0,95,0.00,,,0.00,WUHU216DAVISWMX,2013-12-28 07:06:00,
2013-12-28 02:11:00,18.4,16.9,30.25,WNW,286,0.0,0.0,94,0.00,,,0.00,WUHU216DAVISWMX,2013-12-28 07:11:00,
2013-12-28 02:16:00,18.1,16.6,30.25,WNW,286,0.0,0.0,94,0.00,,,0.00,WUHU216DAVISWMX,2013-12-28 07:16:00,
2013-12-28 02:21:00,18.0,16.5,30.25,WNW,286,0.0,0.0,94,0.00,,,0.00,WUHU216DAVISWMX,2013-12-28 07:21:00,
2013-12-28 02:26:00,17.7,16.2,30.26,WNW,286,0.0,0.0,94,0.00,,,0.00,WUHU216DAVISWMX,2013-12-28 07:26:00,
2013-12-28 02:31:00,17.7,16.2,30.26,WNW,286,0.0,0.0,94,0.00,,,0.00,WUHU216DAVISWMX,2013-12-28 07:31:00,
2013-12-28 02:36:00,17.5,16.0,30.26,WNW,286,0.0,0.0,94,0.00,,,0.00,WUHU216DAVISWMX,2013-12-28 07:36:00,
2013-12-28 02:41:00,17.4,15.9,30.26,WNW,286,0.0,0.0,94,0.00,,,0.00,WUHU216DAVISWMX,2013-12-28 07:41:00,
2013-12-28 02:46:00,17.3,15.8,30.26,WNW,286,0.0,0.0,94,0.00,,,0.00,WUHU216DAVISWMX,2013-12-28 07:46:00,
2013-12-28 02:52:00,17.2,15.7,30.26,WNW,286,0.0,0.0,94,0.00,,,0.00,WUHU216DAVISWMX,2013-12-28 07:52:00,
2013-12-28 02:57:00,17.2,15.7,30.25,WNW,286,0.0,0.0,94,0.00,,,0.00,WUHU216DAVISWMX,2013-12-28 07:57:00,
2013-12-28 03:02:00,17.1,15.6,30.25,WNW,286,0.0,0.0,94,0.00,,,0.00,WUHU216DAVISWMX,2013-12-28 08:02:00,
2013-12-28 03:07:00,17.0,15.5,30.24,WNW,286,0.0,0.0,94,0.00,,,0.00,WUHU216DAVISWMX,2013-12-28 08:07:00,
2013-12-28 03:12:00,16.9,15.4,30.25,WNW,286,0.0,0.0,94,0.00,,,0.00,WUHU216DAVISWMX,2013-12-28 08:12:00,
2013-12-28 03:17:00,16.8,15.3,30.24,WNW,286,0.0,0.0,94,0.00,,,0.00,WUHU216DAVISWMX,2013-12-28 08:17:00,
2013-12-28 03:22:00,16.7,15.2,30.24,WNW,286,0.0,0.0,94,0.00,,,0.00,WUHU216DAVISWMX,2013-12-28 08:22:00,
2013-12-28 03:27:00,16.7,15.2,30.25,WNW,286,0.0,0.0,94,0.00,,,0.00,WUHU216DAVISWMX,2013-12-28 08:27:00,
2013-12-28 03:32:00,16.6,15.1,30.25,WNW,286,0.0,0.0,94,0.00,,,0.00,WUHU216DAVISWMX,2013-12-28 08:32:00,
2013-12-28 03:37:00,16.4,14.9,30.24,WNW,286,0.0,0.0,94,0.00,,,0.00,WUHU216DAVISWMX,2013-12-28 08:37:00,
2013-12-28 03:42:00,16.5,15.0,30.24,WNW,286,0.0,0.0,94,0.00,,,0.00,WUHU216DAVISWMX,2013-12-28 08:42:00,
2013-12-28 03:47:00,16.6,15.1,30.24,WNW,286,0.0,0.0,94,0.00,,,0.00,WUHU216DAVISWMX,2013-12-28 08:47:00,
2013-12-28 03:52:00,16.4,14.9,30.24,WNW,286,0.0,0.0,94,0.00,,,0.00,WUHU216DAVISWMX,2013-12-28 08:52:00,
2013-12-28 03:57:00,16.3,14.8,30.24,WNW,286,0.0,0.0,94,0.00,,,0.00,WUHU216DAVISWMX,2013-12-28 08:57:00,
2013-12-28 04:02:00,16.2,14.7,30.24,WNW,286,0.0,0.0,94,0.00,,,0.00,WUHU216DAVISWMX,2013-12-28 09:02:00,
2013-12-28 04:07:00,16.2,14.7,30.24,WNW,286,0.0,0.0,94,0.00,,,0.00,WUHU216DAVISWMX,2013-12-28 09:07:00,
2013-12-28 04:12:00,16.1,14.6,30.24,WNW,286,0.0,0.0,94,0.00,,,0.00,WUHU216DAVISWMX,2013-12-28 09:12:00,
2013-12-28 04:17:00,16.0,14.5,30.24,WNW,286,0.0,0.0,94,0.00,,,0.00,WUHU216DAVISWMX,2013-12-28 09:17:00,
2013-12-28 04:22:00,16.1,14.6,30.23,WNW,286,0.0,0.0,94,0.00,,,0.00,WUHU216DAVISWMX,2013-12-28 09:22:00,
2013-12-28 04:27:00,16.1,14.6,30.24,WNW,286,0.0,0.0,94,0.00,,,0.00,WUHU216DAVISWMX,2013-12-28 09:27:00,
2013-12-28 04:32:00,16.3,14.8,30.23,WNW,286,0.0,0.0,94,0.00,,,0.00,WUHU216DAVISWMX,2013-12-28 09:32:00,
2013-12-28 04:37:00,16.4,14.9,30.24,WNW,286,0.0,0.0,94,0.00,,,0.00,WUHU216DAVISWMX,2013-12-28 09:37:00,
2013-12-28 04:42:00,16.5,15.0,30.23,WNW,286,0.0,0.0,94,0.00,,,0.00,WUHU216DAVISWMX,2013-12-28 09:42:00,
2013-12-28 04:47:00,16.6,15.1,30.23,WNW,286,0.0,0.0,94,0.00,,,0.00,WUHU216DAVISWMX,2013-12-28 09:47:00,
2013-12-28 04:52:00,16.5,15.0,30.24,WNW,286,0.0,0.0,94,0.00,,,0.00,WUHU216DAVISWMX,2013-12-28 09:52:00,
2013-12-28 04:57:00,16.5,15.0,30.23,WNW,286,0.0,0.0,94,0.00,,,0.00,WUHU216DAVISWMX,2013-12-28 09:57:00,
2013-12-28 05:02:00,16.4,14.9,30.23,WNW,286,0.0,0.0,94,0.00,,,0.00,WUHU216DAVISWMX,2013-12-28 10:02:00,
2013-12-28 05:07:00,16.3,14.8,30.23,WNW,286,0.0,0.0,94,0.00,,,0.00,WUHU216DAVISWMX,2013-12-28 10:07:00,
2013-12-28 05:12:00,16.2,14.7,30.22,WNW,286,0.0,0.0,94,0.00,,,0.00,WUHU216DAVISWMX,2013-12-28 10:12:00,
2013-12-28 05:17:00,16.2,14.7,30.22,WNW,286,0.0,0.0,94,0.00,,,0.00,WUHU216DAVISWMX,2013-12-28 10:17:00,
2013-12-28 05:22:00,16.1,14.6,30.21,WNW,286,0.0,0.0,94,0.00,,,0.00,WUHU216DAVISWMX,2013-12-28 10:22:00,
2013-12-28 05:27:00,16.1,14.6,30.21,WNW,286,0.0,0.0,94,0.00,,,0.00,WUHU216DAVISWMX,2013-12-28 10:27:00,
2013-12-28 05:32:00,16.1,14.6,30.21,WNW,286,0.0,0.0,94,0.00,,,0.00,WUHU216DAVISWMX,2013-12-28 10:32:00,
2013-12-28 05:37:00,16.3,15.1,30.21,WNW,286,0.0,0.0,95,0.00,,,0.00,WUHU216DAVISWMX,2013-12-28 10:37:00,
2013-12-28 05:42:00,16.2,14.7,30.20,ESE,123,0.0,0.0,94,0.00,,,0.00,WUHU216DAVISWMX,2013-12-28 10:42:00,
2013-12-28 05:47:00,16.2,15.0,30.21,ESE,123,0.0,0.0,95,0.00,,,0.00,WUHU216DAVISWMX,2013-12-28 10:47:00,
2013-12-28 05:52:00,16.4,15.2,30.20,ESE,123,0.0,0.0,95,0.00,,,0.00,WUHU216DAVISWMX,2013-12-28 10:52:00,
2013-12-28 05:57:00,16.6,15.4,30.20,ESE,123,0.0,0.0,95,0.00,,,0.00,WUHU216DAVISWMX,2013-12-28 10:57:00,
2013-12-28 06:02:00,16.7,15.7,30.20,ESE,123,0.0,0.0,96,0.00,,,0.00,WUHU216DAVISWMX,2013-12-28 11:02:00,
2013-12-28 06:07:00,16.9,15.9,30.20,ESE,123,0.0,0.0,96,0.00,,,0.00,WUHU216DAVISWMX,2013-12-28 11:07:00,
2013-12-28 06:12:00,17.0,16.0,30.21,ESE,123,0.0,0.0,96,0.00,,,0.00,WUHU216DAVISWMX,2013-12-28 11:12:00,
2013-12-28 06:17:00,17.1,16.4,30.20,ESE,123,0.0,0.0,97,0.00,,,0.00,WUHU216DAVISWMX,2013-12-28 11:17:00,
2013-12-28 06:22:00,17.2,16.5,30.19,SE,128,0.0,0.0,97,0.00,,,0.00,WUHU216DAVISWMX,2013-12-28 11:22:00,
2013-12-28 06:27:00,17.4,16.7,30.19,SW,229,0.0,0.0,97,0.00,,,0.00,WUHU216DAVISWMX,2013-12-28 11:27:00,
2013-12-28 06:32:00,17.5,16.8,30.19,SW,229,0.0,0.0,97,0.00,,,0.00,WUHU216DAVISWMX,2013-12-28 11:32:00,
2013-12-28 06:37:00,17.8,17.1,30.18,West,263,0.0,0.0,97,0.00,,,0.00,WUHU216DAVISWMX,2013-12-28 11:37:00,
2013-12-28 06:42:00,18.1,17.6,30.18,West,263,0.0,0.0,98,0.00,,,0.00,WUHU216DAVISWMX,2013-12-28 11:42:00,
2013-12-28 06:47:00,18.5,18.0,30.18,West,271,0.0,0.0,98,0.00,,,0.00,WUHU216DAVISWMX,2013-12-28 11:47:00,
2013-12-28 06:52:00,19.3,19.3,30.18,SSW,198,0.0,0.0,100,0.00,,,0.00,WUHU216DAVISWMX,2013-12-28 11:52:00,
2013-12-28 06:57:00,19.8,19.8,30.18,SW,219,0.0,0.0,100,0.00,,,0.00,WUHU216DAVISWMX,2013-12-28 11:57:00,
2013-12-28 07:02:00,20.9,20.9,30.17,SW,234,0.0,3.0,100,0.00,,,0.00,WUHU216DAVISWMX,2013-12-28 12:02:00,
2013-12-28 07:07:00,22.1,22.1,30.17,WNW,285,0.0,3.0,100,0.00,,,0.00,WUHU216DAVISWMX,2013-12-28 12:07:00,
2013-12-28 07:12:00,22.8,22.8,30.17,SW,234,0.0,0.0,100,0.00,,,0.00,WUHU216DAVISWMX,2013-12-28 12:12:00,
2013-12-28 07:17:00,23.5,23.5,30.16,SW,219,0.0,2.0,100,0.00,,,0.00,WUHU216DAVISWMX,2013-12-28 12:17:00,
2013-12-28 07:22:00,24.4,24.4,30.16,WSW,243,0.0,7.0,100,0.00,,,0.00,WUHU216DAVISWMX,2013-12-28 12:22:00,
2013-12-28 07:27:00,25.2,25.2,30.15,West,259,0.0,7.0,100,0.00,,,0.00,WUHU216DAVISWMX,2013-12-28 12:27:00,
2013-12-28 07:32:00,25.9,25.9,30.16,SSW,209,0.0,5.0,100,0.00,,,0.00,WUHU216DAVISWMX,2013-12-28 12:32:00,
2013-12-28 07:37:00,26.6,26.6,30.16,WSW,250,0.0,5.0,100,0.00,,,0.00,WUHU216DAVISWMX,2013-12-28 12:37:00,
2013-12-28 07:42:00,27.0,27.0,30.16,West,264,0.0,5.0,100,0.00,,,0.00,WUHU216DAVISWMX,2013-12-28 12:42:00,
2013-12-28 07:47:00,27.8,27.8,30.16,WSW,239,0.0,5.0,100,0.00,,,0.00,WUHU216DAVISWMX,2013-12-28 12:47:00,
2013-12-28 07:52:00,28.3,28.3,30.15,West,267,0.0,8.0,100,0.00,,,0.00,WUHU216DAVISWMX,2013-12-28 12:52:00,
2013-12-28 07:57:00,28.6,28.6,30.16,WNW,289,0.0,8.0,100,0.00,,,0.00,WUHU216DAVISWMX,2013-12-28 12:57:00,
2013-12-28 08:02:00,28.9,28.6,30.15,WSW,251,0.0,7.0,99,0.00,,,0.00,WUHU216DAVISWMX,2013-12-28 13:02:00,
2013-12-28 08:07:00,28.9,28.6,30.15,West,267,0.0,6.0,99,0.00,,,0.00,WUHU216DAVISWMX,2013-12-28 13:07:00,
2013-12-28 08:12:00,29.2,28.7,30.15,WSW,257,1.0,5.0,98,0.00,,,0.00,WUHU216DAVISWMX,2013-12-28 13:12:00,
2013-12-28 08:17:00,29.4,28.6,30.16,WSW,252,0.0,5.0,97,0.00,,,0.00,WUHU216DAVISWMX,2013-12-28 13:17:00,
2013-12-28 08:22:00,29.6,28.8,30.16,West,265,0.0,1.0,97,0.00,,,0.00,WUHU216DAVISWMX,2013-12-28 13:22:00,
2013-12-28 08:27:00,29.8,28.8,30.16,WSW,258,2.0,4.0,96,0.00,,,0.00,WUHU216DAVISWMX,2013-12-28 13:27:00,
2013-12-28 08:32:00,30.1,28.8,30.16,West,271,0.0,7.0,95,0.00,,,0.00,WUHU216DAVISWMX,2013-12-28 13:32:00,
2013-12-28 08:48:00,30.7,29.1,30.15,SSW,193,0.0,0.0,94,0.00,,,0.00,WUHU216DAVISWMX,2013-12-28 13:48:00,
2013-12-28 08:53:00,30.8,29.0,30.15,West,260,2.0,6.0,93,0.00,,,0.00,WUHU216DAVISWMX,2013-12-28 13:53:00,
2013-12-28 08:58:00,31.1,29.3,30.16,WSW,251,0.0,6.0,93,0.00,,,0.00,WUHU216DAVISWMX,2013-12-28 13:58:00,
2013-12-28 09:03:00,31.2,29.1,30.16,WSW,254,0.0,3.0,92,0.00,,,0.00,WUHU216DAVISWMX,2013-12-28 14:03:00,
2013-12-28 09:08:00,31.3,29.2,30.15,SSW,201,0.0,3.0,92,0.00,,,0.00,WUHU216DAVISWMX,2013-12-28 14:08:00,
2013-12-28 09:13:00,31.3,29.2,30.15,WSW,239,0.0,1.0,92,0.00,,,0.00,WUHU216DAVISWMX,2013-12-28 14:13:00,
2013-12-28 09:18:00,31.3,29.2,30.15,WNW,288,0.0,0.0,92,0.00,,,0.00,WUHU216DAVISWMX,2013-12-28 14:18:00,
2013-12-28 09:23:00,31.6,29.2,30.15,West,266,0.0,0.0,91,0.00,,,0.00,WUHU216DAVISWMX,2013-12-28 14:23:00,
2013-12-28 09:28:00,31.8,29.4,30.15,WNW,295,0.0,1.0,91,0.00,,,0.00,WUHU216DAVISWMX,2013-12-28 14:28:00,
2013-12-28 09:33:00,32.1,29.7,30.14,West,266,0.0,1.0,91,0.00,,,0.00,WUHU216DAVISWMX,2013-12-28 14:33:00,
2013-12-28 09:38:00,32.2,29.6,30.14,WSW,255,0.0,5.0,90,0.00,,,0.00,WUHU216DAVISWMX,2013-12-28 14:38:00,
2013-12-28 09:43:00,32.5,29.8,30.14,WSW,244,3.0,5.0,90,0.00,,,0.00,WUHU216DAVISWMX,2013-12-28 14:43:00,
2013-12-28 09:48:00,33.0,30.3,30.14,West,274,0.0,6.0,90,0.00,,,0.00,WUHU216DAVISWMX,2013-12-28 14:48:00,
2013-12-28 09:53:00,33.4,30.5,30.14,WSW,253,0.0,6.0,89,0.00,,,0.00,WUHU216DAVISWMX,2013-12-28 14:53:00,
2013-12-28 09:58:00,33.6,30.7,30.14,WSW,239,1.0,5.0,89,0.00,,,0.00,WUHU216DAVISWMX,2013-12-28 14:58:00,
2013-12-28 10:03:00,33.7,30.5,30.14,WSW,247,0.0,4.0,88,0.00,,,0.00,WUHU216DAVISWMX,2013-12-28 15:03:00,
2013-12-28 10:05:00,33.7,30.5,30.13,WSW,247,0.0,4.0,88,0.00,,,0.00,WUHU216DAVISWMX,2013-12-28 15:05:00,